Costa Mesa, California
Current Conditions -  °F | °C
As of 7:53 AM on Monday 29 Dec 2014 (Local Time) from KSNA Reporting Station
Scattered Clouds Scattered Clouds  
Wind Chill: 53°   Ceiling: Unl
Heat Index: 53°   Visibility: 10mi
Dew Point: 37°   Wind: 3mph
Humidity: 55%   Direction: NA
Pressure: 30.15"   Gusts: NA
Location:  33.66°N, 117.9°W
Report Text: KSNA 291553Z VRB03KT 10SM SCT026 12/03 A3015 RMK AO2 SLP209 T01170028
Loading
Personal Weather Stations






























Interactive Weather Map New forecast layout! Learn more

10-Day Weather Forecast

Advertisements
Track Severe Weather on mobile